Houston, Texas
Traffic Map
Current Weather Conditions
Houston, Texas
Broken Clouds
Broken Clouds
33°
Feels Like: 38°
Wind Chill: 33° Ceiling: 5000
Heat Index: 38° Visibility: 10mi
Dew Point: 23° Wind: 13mph
Humidity: 55% Direction: 150° (SSE)
Pressure: 29.94in Gusts: 0mph
Raw Report DataKMCJ 222335Z AUTO 15011KT 10SM BKN050 33/23 A2994 RMK AO1
Traffic Incident Summary
Active as of:
Severity:
Category:
InformationThere was an issue retrieving the traffic information for this location. Please try a different location or try again shortly.
Advertisements
Track Severe Weather on mobile